createdAt,value
2023-12-18T00:01:17.117Z,33.00
2023-12-18T00:03:45.132Z,32.00
2023-12-18T00:06:12.511Z,31.33
2023-12-18T00:08:39.601Z,32.75
2023-12-18T00:11:08.164Z,30.67
2023-12-18T00:13:35.134Z,32.00
2023-12-18T00:16:02.858Z,33.67
2023-12-18T00:18:30.617Z,31.33
2023-12-18T00:20:57.985Z,31.00
2023-12-18T00:23:25.787Z,31.00
2023-12-18T00:25:52.814Z,30.00
2023-12-18T00:28:21.731Z,30.67
2023-12-18T00:30:49.632Z,31.33
2023-12-18T00:33:16.896Z,29.67
2023-12-18T00:35:43.918Z,28.33
2023-12-18T00:38:11.084Z,28.67
2023-12-18T00:40:38.092Z,27.67
2023-12-18T00:43:05.095Z,31.00
2023-12-18T00:45:33.461Z,29.67
2023-12-18T00:48:01.713Z,29.33
2023-12-18T00:50:28.873Z,29.67
2023-12-18T00:52:58.340Z,31.00
2023-12-18T00:55:25.587Z,28.33
2023-12-18T00:57:54.554Z,26.33
2023-12-18T01:00:22.716Z,31.00
2023-12-18T01:02:51.538Z,29.67
2023-12-18T01:05:18.636Z,28.67
2023-12-18T01:07:46.677Z,28.67
2023-12-18T01:10:13.904Z,30.00
2023-12-18T01:12:41.824Z,29.00
2023-12-18T01:15:14.014Z,30.00
2023-12-18T01:17:43.078Z,25.00
2023-12-18T01:20:12.529Z,28.67
2023-12-18T01:22:39.585Z,29.00
2023-12-18T01:25:08.641Z,29.67
2023-12-18T01:27:35.560Z,29.00
2023-12-18T01:30:03.123Z,30.00
2023-12-18T01:32:32.515Z,29.33
2023-12-18T01:34:59.551Z,28.67
2023-12-18T01:37:27.972Z,30.67
2023-12-18T01:39:55.132Z,28.00
2023-12-18T01:42:22.519Z,30.00
2023-12-18T01:44:49.561Z,28.67
2023-12-18T01:47:18.699Z,28.67
2023-12-18T01:49:47.434Z,27.67
2023-12-18T01:52:14.723Z,12.67
2023-12-18T01:54:48.429Z,20.67
2023-12-18T01:57:19.392Z,28.00
2023-12-18T01:59:49.403Z,30.00
2023-12-18T02:02:18.904Z,27.67
2023-12-18T02:04:48.722Z,26.00
2023-12-18T02:07:15.894Z,29.00
2023-12-18T02:09:45.569Z,29.00
2023-12-18T02:12:12.739Z,30.00
2023-12-18T02:14:41.920Z,28.00
2023-12-18T02:17:09.804Z,28.33
2023-12-18T02:19:37.707Z,29.00
2023-12-18T02:22:04.810Z,27.67
2023-12-18T02:24:33.388Z,22.00
2023-12-18T02:27:01.344Z,27.33
2023-12-18T02:29:28.597Z,29.00
2023-12-18T02:31:55.815Z,24.00
2023-12-18T02:34:23.189Z,26.00
2023-12-18T02:36:50.351Z,22.00
2023-12-18T02:39:18.629Z,30.67
2023-12-18T02:41:46.907Z,29.00
2023-12-18T02:44:14.045Z,28.67
2023-12-18T02:46:41.373Z,27.00
2023-12-18T02:49:08.673Z,28.33
2023-12-18T02:51:36.640Z,26.33
2023-12-18T02:54:04.171Z,26.00
2023-12-18T02:56:32.041Z,26.00
2023-12-18T02:59:03.269Z,26.33
2023-12-18T03:01:30.623Z,22.00
2023-12-18T03:04:00.560Z,27.00
2023-12-18T03:06:30.184Z,27.00
2023-12-18T03:08:57.237Z,25.33
2023-12-18T03:11:27.740Z,26.67
2023-12-18T03:13:55.143Z,25.00
2023-12-18T03:16:23.807Z,28.67
2023-12-18T03:18:52.481Z,25.00
2023-12-18T03:21:20.011Z,28.00
2023-12-18T03:23:48.979Z,28.67
2023-12-18T03:26:16.181Z,28.00
2023-12-18T03:28:43.680Z,29.67
2023-12-18T03:31:11.889Z,30.33
2023-12-18T03:33:41.951Z,29.67
2023-12-18T03:36:09.468Z,28.67
2023-12-18T03:38:37.407Z,29.00
2023-12-18T03:41:04.608Z,30.33
2023-12-18T03:43:31.961Z,28.67
2023-12-18T03:45:59.137Z,28.00
2023-12-18T03:48:26.813Z,29.00
2023-12-18T03:50:57.072Z,27.33
2023-12-18T03:53:24.379Z,24.67
2023-12-18T03:55:51.438Z,28.00
2023-12-18T03:58:18.676Z,24.00
2023-12-18T04:00:46.111Z,28.67
2023-12-18T04:03:23.974Z,27.67
2023-12-18T04:08:57.870Z,25.00
2023-12-18T04:11:25.207Z,28.00
2023-12-18T04:13:53.473Z,28.67
2023-12-18T04:16:20.724Z,27.00
2023-12-18T04:18:50.174Z,28.67
2023-12-18T04:21:19.107Z,29.00
2023-12-18T04:23:46.203Z,28.67
2023-12-18T04:26:13.321Z,28.00
2023-12-18T04:28:41.069Z,27.00
2023-12-18T04:31:08.169Z,28.00
2023-12-18T04:33:35.204Z,28.00
2023-12-18T04:36:02.401Z,28.67
2023-12-18T04:38:32.446Z,25.33
2023-12-18T04:40:59.480Z,27.67
2023-12-18T04:43:29.412Z,28.33
2023-12-18T04:45:59.577Z,27.00
2023-12-18T04:48:27.842Z,24.00
2023-12-18T04:50:55.386Z,27.00
2023-12-18T04:53:22.610Z,27.67
2023-12-18T04:55:50.987Z,27.00
2023-12-18T04:58:18.264Z,26.67
2023-12-18T05:00:45.529Z,25.00
2023-12-18T05:03:13.012Z,7.67
2023-12-18T05:05:40.098Z,25.00
2023-12-18T05:08:07.894Z,25.00
2023-12-18T05:10:36.387Z,27.00
2023-12-18T05:13:05.201Z,26.67
2023-12-18T05:15:32.182Z,27.67
2023-12-18T05:17:59.264Z,25.33
2023-12-18T05:20:26.365Z,25.67
2023-12-18T05:22:56.272Z,25.00
2023-12-18T05:25:23.286Z,27.00
2023-12-18T05:27:50.296Z,26.33
2023-12-18T05:30:19.246Z,26.33
2023-12-18T05:32:47.584Z,28.00
2023-12-18T05:35:17.105Z,26.00
2023-12-18T05:37:44.397Z,28.33
2023-12-18T05:40:13.070Z,23.67
2023-12-18T05:42:42.988Z,26.67
2023-12-18T05:45:11.586Z,28.00
2023-12-18T05:47:40.192Z,28.33
2023-12-18T05:50:08.237Z,26.67
2023-12-18T05:52:35.478Z,38.00
2023-12-18T05:55:02.450Z,26.00
2023-12-18T05:57:29.730Z,25.67
2023-12-18T05:59:56.910Z,26.00
2023-12-18T06:02:23.843Z,26.00
2023-12-18T06:04:52.192Z,25.67
2023-12-18T06:07:19.306Z,26.33
2023-12-18T06:09:49.568Z,26.67
2023-12-18T06:12:16.948Z,24.00
2023-12-18T06:14:44.833Z,24.33
2023-12-18T06:17:12.353Z,25.67
2023-12-18T06:19:39.850Z,25.33
2023-12-18T06:22:13.913Z,24.67
2023-12-18T06:24:41.654Z,25.67
2023-12-18T06:27:08.983Z,25.67
2023-12-18T06:29:35.974Z,24.00
2023-12-18T06:32:03.211Z,24.00
2023-12-18T06:34:30.487Z,23.33
2023-12-18T06:36:57.892Z,24.00
2023-12-18T06:39:26.588Z,24.00
2023-12-18T06:41:54.542Z,24.00
2023-12-18T06:44:21.735Z,23.00
2023-12-18T06:46:48.845Z,24.00
2023-12-18T06:49:16.880Z,25.00
2023-12-18T06:51:44.562Z,26.00
2023-12-18T06:54:12.492Z,24.33
2023-12-18T06:56:40.991Z,24.33
2023-12-18T06:59:09.394Z,24.00
2023-12-18T07:01:36.880Z,24.00
2023-12-18T07:04:04.334Z,26.00
2023-12-18T07:06:31.757Z,26.00
2023-12-18T07:08:58.952Z,24.00
2023-12-18T07:11:26.033Z,25.67
2023-12-18T07:13:58.092Z,25.00
2023-12-18T07:16:25.353Z,24.00
2023-12-18T07:18:52.451Z,25.00
2023-12-18T07:21:19.793Z,25.00
2023-12-18T07:23:47.568Z,27.67
2023-12-18T07:26:15.045Z,24.00
2023-12-18T07:28:44.163Z,25.00
2023-12-18T07:31:12.831Z,26.67
2023-12-18T07:33:39.974Z,26.00
2023-12-18T07:36:07.704Z,26.00
2023-12-18T07:38:34.662Z,26.00
2023-12-18T07:41:04.139Z,30.67
2023-12-18T07:43:31.722Z,31.67
2023-12-18T07:45:58.657Z,30.75
2023-12-18T07:48:27.454Z,31.00
2023-12-18T07:50:54.655Z,27.50
2023-12-18T07:53:21.764Z,30.00
2023-12-18T07:55:49.477Z,27.67
2023-12-18T07:58:18.342Z,28.33
2023-12-18T08:00:46.853Z,31.00
2023-12-18T08:03:14.233Z,30.00
2023-12-18T08:05:43.216Z,26.50
2023-12-18T08:08:13.139Z,25.00
2023-12-18T08:10:40.484Z,27.33
2023-12-18T08:13:08.172Z,25.00
2023-12-18T08:15:36.494Z,27.25
2023-12-18T08:18:04.285Z,27.00
2023-12-18T08:20:31.267Z,25.50
2023-12-18T08:22:59.772Z,25.50
2023-12-18T08:25:26.758Z,26.75
2023-12-18T08:27:54.752Z,28.25
2023-12-18T08:30:21.772Z,28.25
2023-12-18T08:32:48.861Z,29.00
2023-12-18T08:35:15.804Z,26.75
2023-12-18T08:37:42.965Z,26.00
2023-12-18T08:40:12.892Z,33.75
2023-12-18T08:42:40.867Z,26.00
2023-12-18T08:45:09.975Z,34.00
2023-12-18T08:47:37.024Z,27.25
2023-12-18T08:50:05.082Z,35.25
2023-12-18T08:52:32.363Z,33.00
2023-12-18T08:54:59.492Z,34.25
2023-12-18T08:57:29.063Z,30.00
2023-12-18T08:59:56.038Z,26.75
2023-12-18T09:02:23.125Z,34.75
2023-12-18T09:04:50.362Z,32.75
2023-12-18T09:07:17.354Z,33.00
2023-12-18T09:09:44.405Z,31.50
2023-12-18T09:12:11.439Z,28.67
2023-12-18T09:14:39.836Z,32.00
2023-12-18T09:17:06.752Z,34.75
2023-12-18T09:19:33.857Z,35.75
2023-12-18T09:22:02.972Z,31.00
2023-12-18T09:24:31.835Z,29.75
2023-12-18T09:26:58.980Z,31.25
2023-12-18T09:29:25.950Z,29.25
2023-12-18T09:31:54.733Z,30.50
2023-12-18T09:34:23.165Z,26.25
2023-12-18T09:36:50.410Z,29.50
2023-12-18T09:39:17.376Z,35.75
2023-12-18T09:41:44.771Z,32.75
2023-12-18T09:44:11.979Z,31.00
2023-12-18T09:46:39.985Z,26.00
2023-12-18T09:49:08.435Z,28.00
2023-12-18T09:51:41.517Z,29.67
2023-12-18T09:54:10.459Z,30.25
2023-12-18T09:56:39.113Z,18.00
2023-12-18T09:59:08.721Z,24.00
2023-12-18T10:01:36.226Z,20.00
2023-12-18T10:04:04.732Z,22.25
2023-12-18T10:06:33.235Z,21.25
2023-12-18T10:09:02.546Z,13.50
2023-12-18T10:11:30.198Z,29.00
2023-12-18T10:13:57.625Z,24.00
2023-12-18T10:16:24.638Z,22.67
2023-12-18T10:18:53.364Z,18.00
2023-12-18T10:21:22.761Z,24.00
2023-12-18T10:23:52.947Z,22.00
2023-12-18T10:26:19.989Z,23.50
2023-12-18T10:28:47.410Z,24.75
2023-12-18T10:31:15.035Z,28.50
2023-12-18T10:33:43.493Z,29.00
2023-12-18T10:36:10.903Z,18.50
2023-12-18T10:38:42.907Z,24.00
2023-12-18T10:41:14.362Z,23.00
2023-12-18T10:43:44.343Z,20.50
2023-12-18T10:46:13.875Z,24.75
2023-12-18T10:48:43.594Z,21.25
2023-12-18T10:51:11.348Z,25.50
2023-12-18T10:53:40.738Z,21.00
2023-12-18T10:56:09.648Z,27.75
2023-12-18T10:58:41.550Z,21.00
2023-12-18T11:01:11.063Z,23.50
2023-12-18T11:03:38.839Z,25.50
2023-12-18T11:06:09.070Z,22.00
2023-12-18T11:08:36.628Z,21.25
2023-12-18T11:11:06.678Z,21.25
2023-12-18T11:14:01.927Z,21.25
2023-12-18T11:16:44.797Z,12.75
2023-12-18T11:19:30.707Z,19.50
2023-12-18T11:22:00.753Z,19.00
2023-12-18T11:24:35.949Z,19.00
2023-12-18T11:27:03.567Z,22.00
2023-12-18T11:29:44.245Z,23.00
2023-12-18T11:32:34.912Z,19.75
2023-12-18T11:35:03.330Z,23.25
2023-12-18T11:37:40.624Z,22.00
2023-12-18T11:40:39.997Z,21.25
2023-12-18T11:43:08.818Z,13.00
2023-12-18T11:45:41.258Z,19.40
2023-12-18T11:48:10.164Z,19.80
2023-12-18T11:50:39.789Z,21.00
2023-12-18T11:53:08.334Z,24.75
2023-12-18T11:55:48.702Z,28.50
2023-12-18T11:58:21.074Z,20.50
2023-12-18T12:00:51.888Z,18.75
2023-12-18T12:03:22.522Z,19.50
2023-12-18T12:05:51.597Z,20.00
2023-12-18T12:08:19.089Z,20.40
2023-12-18T12:10:49.473Z,18.20
2023-12-18T12:13:21.911Z,20.50
2023-12-18T12:16:00.848Z,21.00
2023-12-18T12:18:30.962Z,21.00
2023-12-18T12:20:58.996Z,18.25
2023-12-18T12:23:27.065Z,21.25
2023-12-18T12:25:59.934Z,17.25
2023-12-18T12:28:29.541Z,20.00
2023-12-18T12:30:58.388Z,21.50
2023-12-18T12:33:26.214Z,20.75
2023-12-18T12:35:53.991Z,21.25
2023-12-18T12:38:21.009Z,17.75
2023-12-18T12:40:48.145Z,15.50
2023-12-18T12:43:16.484Z,20.00
2023-12-18T12:45:47.497Z,22.25
2023-12-18T12:48:18.705Z,19.00
2023-12-18T12:50:47.866Z,20.00
2023-12-18T12:53:17.661Z,18.75
2023-12-18T12:55:52.516Z,17.25
2023-12-18T12:58:23.799Z,19.00
2023-12-18T13:00:53.540Z,20.50
2023-12-18T13:03:22.686Z,20.50
2023-12-18T13:05:50.707Z,16.75
2023-12-18T13:08:17.776Z,19.00
2023-12-18T13:10:45.171Z,19.25
2023-12-18T13:13:12.145Z,19.00
2023-12-18T13:15:39.678Z,20.25
2023-12-18T13:18:08.259Z,16.50
2023-12-18T13:20:36.900Z,19.00
2023-12-18T13:23:04.534Z,19.25
2023-12-18T13:25:31.993Z,21.00
2023-12-18T13:27:59.119Z,19.25
2023-12-18T13:30:26.263Z,18.00
2023-12-18T13:32:53.566Z,17.33
2023-12-18T13:35:21.142Z,18.67
2023-12-18T13:37:49.853Z,17.33
2023-12-18T13:40:17.533Z,17.00
2023-12-18T13:42:44.571Z,17.33
2023-12-18T13:45:12.468Z,12.75
2023-12-18T13:47:41.094Z,18.00
2023-12-18T13:50:09.684Z,21.75
2023-12-18T13:52:37.145Z,19.25
2023-12-18T13:55:06.793Z,19.50
2023-12-18T13:57:39.487Z,20.00
2023-12-18T14:00:14.277Z,18.50
2023-12-18T14:02:41.365Z,19.50
2023-12-18T14:05:09.789Z,19.50
2023-12-18T14:07:37.080Z,17.50
2023-12-18T14:10:06.184Z,18.50
2023-12-18T14:12:35.662Z,16.00
2023-12-18T14:15:05.855Z,23.00
2023-12-18T14:17:32.854Z,22.00
2023-12-18T14:20:02.071Z,18.33
2023-12-18T14:22:29.127Z,18.00
2023-12-18T14:24:56.211Z,19.00
2023-12-18T14:27:24.881Z,18.00
2023-12-18T14:29:54.727Z,18.67
2023-12-18T14:32:21.717Z,21.67
2023-12-18T14:34:51.231Z,17.00
2023-12-18T14:37:20.286Z,19.50
2023-12-18T14:39:47.713Z,17.50
2023-12-18T14:42:14.874Z,15.50
2023-12-18T14:44:43.677Z,20.75
2023-12-18T14:47:11.385Z,18.75
2023-12-18T14:49:38.460Z,22.50
2023-12-18T14:52:07.765Z,18.00
2023-12-18T14:54:35.675Z,23.00
2023-12-18T14:57:02.729Z,22.75
2023-12-18T14:59:32.771Z,24.00
2023-12-18T15:02:01.451Z,21.25
2023-12-18T15:04:30.518Z,23.00
2023-12-18T15:06:59.239Z,25.25
2023-12-18T15:09:27.018Z,23.00
2023-12-18T15:11:54.158Z,23.50
2023-12-18T15:14:21.134Z,22.50
2023-12-18T15:16:48.448Z,23.00
2023-12-18T15:19:17.780Z,23.75
2023-12-18T15:21:45.166Z,21.00
2023-12-18T15:24:12.342Z,25.00
2023-12-18T15:26:41.462Z,27.50
2023-12-18T15:29:08.535Z,25.75
2023-12-18T15:31:36.322Z,26.25
2023-12-18T15:34:06.078Z,24.50
2023-12-18T15:36:37.781Z,28.00
2023-12-18T15:39:05.532Z,28.50
2023-12-18T15:41:32.698Z,31.50
2023-12-18T15:44:00.020Z,31.50
2023-12-18T15:46:27.084Z,30.75
2023-12-18T15:48:54.478Z,33.00
2023-12-18T15:51:21.802Z,30.75
2023-12-18T15:53:50.452Z,26.00
2023-12-18T15:56:17.693Z,28.00
2023-12-18T15:58:44.949Z,27.75
2023-12-18T16:01:13.352Z,30.25
2023-12-18T16:03:43.014Z,29.50
2023-12-18T16:06:11.687Z,24.00
2023-12-18T16:08:40.470Z,26.75
2023-12-18T16:11:09.018Z,25.00
2023-12-18T16:13:37.056Z,28.50
2023-12-18T16:16:05.241Z,26.25
2023-12-18T16:18:33.369Z,29.50
2023-12-18T16:21:01.543Z,31.25
2023-12-18T16:23:28.377Z,31.75
2023-12-18T16:25:56.783Z,30.25
2023-12-18T16:28:25.379Z,31.00
2023-12-18T16:30:56.803Z,26.75
2023-12-18T16:33:25.448Z,29.00
2023-12-18T16:35:53.281Z,29.00
2023-12-18T16:38:21.771Z,24.25
2023-12-18T16:40:52.804Z,24.50
2023-12-18T16:43:20.534Z,25.00
2023-12-18T16:45:53.420Z,24.75
2023-12-18T16:48:20.841Z,25.50
2023-12-18T16:50:47.828Z,26.25
2023-12-18T16:53:15.050Z,24.25
2023-12-18T16:55:43.278Z,24.50
2023-12-18T16:58:11.054Z,24.50
2023-12-18T17:00:38.274Z,33.00
2023-12-18T17:03:07.717Z,33.25
2023-12-18T17:05:34.767Z,30.00
2023-12-18T17:08:02.332Z,34.00
2023-12-18T17:10:29.592Z,28.67
2023-12-18T17:12:56.518Z,22.33
2023-12-18T17:15:24.067Z,22.33
2023-12-18T17:17:51.111Z,27.33
2023-12-18T17:20:22.139Z,24.00
2023-12-18T17:22:50.353Z,24.33
2023-12-18T17:25:18.841Z,25.25
2023-12-18T17:27:45.837Z,22.33
2023-12-18T17:30:13.571Z,22.33
2023-12-18T17:32:40.682Z,21.33
2023-12-18T17:35:09.067Z,21.67
2023-12-18T17:37:40.082Z,27.75
2023-12-18T17:40:09.286Z,22.50
2023-12-18T17:42:36.447Z,19.33
2023-12-18T17:45:05.078Z,20.33
2023-12-18T17:47:34.406Z,21.33
2023-12-18T17:50:02.028Z,21.33
2023-12-18T17:52:29.422Z,21.67
2023-12-18T17:54:57.790Z,21.00
2023-12-18T17:57:24.932Z,27.50
2023-12-18T17:59:53.653Z,22.00
2023-12-18T18:02:21.634Z,18.75
2023-12-18T18:04:49.545Z,21.25
2023-12-18T18:07:16.855Z,23.33
2023-12-18T18:09:43.853Z,23.00
2023-12-18T18:12:12.970Z,26.00
2023-12-18T18:14:40.550Z,33.67
2023-12-18T18:17:07.630Z,26.33
2023-12-18T18:19:34.903Z,24.00
2023-12-18T18:22:01.793Z,16.00
2023-12-18T18:24:28.836Z,23.00
2023-12-18T18:27:08.460Z,24.00
2023-12-18T18:29:39.609Z,23.67
2023-12-18T18:32:07.776Z,22.33
2023-12-18T18:34:35.388Z,19.33
2023-12-18T18:37:02.926Z,20.00
2023-12-18T18:39:29.948Z,19.00
2023-12-18T18:41:56.912Z,21.33
2023-12-18T18:44:23.873Z,21.00
2023-12-18T18:46:53.285Z,22.33
2023-12-18T18:49:20.430Z,22.00
2023-12-18T18:51:47.440Z,21.33
2023-12-18T18:54:14.516Z,21.00
2023-12-18T18:56:41.458Z,24.33
2023-12-18T18:59:08.599Z,22.00
2023-12-18T19:01:35.918Z,28.00
2023-12-18T19:04:05.168Z,29.33
2023-12-18T19:06:32.528Z,31.67
2023-12-18T19:08:59.963Z,29.00
2023-12-18T19:11:28.381Z,40.25
2023-12-18T19:13:55.464Z,36.50
2023-12-18T19:16:23.155Z,32.00
2023-12-18T19:18:50.161Z,34.33
2023-12-18T19:21:19.536Z,34.00
2023-12-18T19:23:46.523Z,30.33
2023-12-18T19:26:13.454Z,37.00
2023-12-18T19:28:40.323Z,36.00
2023-12-18T19:31:07.307Z,33.75
2023-12-18T19:33:34.498Z,31.67
2023-12-18T19:36:01.642Z,31.00
2023-12-18T19:38:32.727Z,32.67
2023-12-18T19:40:59.779Z,32.67
2023-12-18T19:43:27.102Z,33.00
2023-12-18T19:45:54.315Z,33.00
2023-12-18T19:48:21.829Z,27.67
2023-12-18T19:50:48.765Z,28.00
2023-12-18T19:53:16.104Z,22.00
2023-12-18T19:55:44.982Z,28.00
2023-12-18T19:58:17.655Z,31.00
2023-12-18T20:00:45.773Z,27.67
2023-12-18T20:03:13.342Z,33.67
2023-12-18T20:05:44.577Z,31.00
2023-12-18T20:08:14.609Z,32.67
2023-12-18T20:10:46.837Z,35.00
2023-12-18T20:13:14.091Z,32.00
2023-12-18T20:15:41.570Z,36.00
2023-12-18T20:18:08.642Z,31.75
2023-12-18T20:20:35.732Z,36.75
2023-12-18T20:23:08.164Z,38.25
2023-12-18T20:25:35.388Z,33.33
2023-12-18T20:28:04.555Z,36.75
2023-12-18T20:30:31.747Z,37.00
2023-12-18T20:32:59.187Z,32.33
2023-12-18T20:35:26.185Z,33.00
2023-12-18T20:37:53.085Z,31.33
2023-12-18T20:40:20.488Z,30.67
2023-12-18T20:42:49.035Z,35.33
2023-12-18T20:45:20.270Z,36.75
2023-12-18T20:47:48.653Z,32.33
2023-12-18T20:50:16.531Z,33.33
2023-12-18T20:52:43.872Z,32.00
2023-12-18T20:55:11.059Z,36.25
2023-12-18T20:57:40.097Z,35.50
2023-12-18T21:00:22.597Z,36.50
2023-12-18T21:02:53.793Z,38.00
2023-12-18T21:05:21.574Z,36.75
2023-12-18T21:07:48.609Z,37.00
2023-12-18T21:10:15.879Z,36.00
2023-12-18T21:12:43.488Z,36.50
2023-12-18T21:15:11.788Z,37.00
2023-12-18T21:17:38.810Z,38.50
2023-12-18T21:20:10.857Z,37.00
2023-12-18T21:22:38.218Z,37.00
2023-12-18T21:25:06.405Z,36.75
2023-12-18T21:27:33.611Z,36.00
2023-12-18T21:30:01.092Z,38.00
2023-12-18T21:32:28.911Z,35.00
2023-12-18T21:34:55.957Z,35.25
2023-12-18T21:37:24.356Z,39.25
2023-12-18T21:39:51.439Z,41.00
2023-12-18T21:42:18.493Z,39.75
2023-12-18T21:44:46.744Z,37.00
2023-12-18T21:47:13.955Z,38.75
2023-12-18T21:49:40.998Z,39.00
2023-12-18T21:52:07.975Z,42.50
2023-12-18T21:54:36.296Z,37.00
2023-12-18T21:57:03.894Z,33.67
2023-12-18T21:59:31.153Z,30.67
2023-12-18T22:01:59.084Z,31.00
2023-12-18T22:04:26.165Z,34.25
2023-12-18T22:06:53.309Z,31.33
2023-12-18T22:09:20.409Z,32.00
2023-12-18T22:11:48.860Z,32.00
2023-12-18T22:14:15.933Z,28.33
2023-12-18T22:16:43.035Z,26.67
2023-12-18T22:19:10.700Z,30.00
2023-12-18T22:21:37.817Z,27.67
2023-12-18T22:24:06.211Z,29.00
2023-12-18T22:26:33.296Z,31.00
2023-12-18T22:29:02.248Z,30.33
2023-12-18T22:31:31.098Z,31.33
2023-12-18T22:33:59.083Z,29.67
2023-12-18T22:36:26.232Z,30.00
2023-12-18T22:38:58.991Z,31.33
2023-12-18T22:41:26.564Z,31.00
2023-12-18T22:43:53.484Z,30.00
2023-12-18T22:46:24.727Z,31.67
2023-12-18T22:48:51.717Z,31.00
2023-12-18T22:51:18.863Z,34.33
2023-12-18T22:53:48.047Z,34.67
2023-12-18T22:56:15.072Z,31.00
2023-12-18T22:58:41.972Z,30.00
2023-12-18T23:01:09.333Z,27.33
2023-12-18T23:03:37.654Z,31.00
2023-12-18T23:06:05.395Z,27.00
2023-12-18T23:08:32.461Z,30.00
2023-12-18T23:11:00.024Z,31.33
2023-12-18T23:13:26.962Z,29.00
2023-12-18T23:15:54.260Z,29.33
2023-12-18T23:18:22.745Z,29.67
2023-12-18T23:20:51.111Z,25.00
2023-12-18T23:23:18.564Z,29.67
2023-12-18T23:25:45.790Z,30.00
2023-12-18T23:28:13.084Z,31.00
2023-12-18T23:30:40.231Z,31.00
2023-12-18T23:33:13.076Z,30.00
2023-12-18T23:35:45.017Z,30.33
2023-12-18T23:38:13.461Z,24.00
2023-12-18T23:40:41.030Z,30.67
2023-12-18T23:43:09.004Z,30.00
2023-12-18T23:45:35.951Z,31.67
2023-12-18T23:48:03.267Z,29.00
2023-12-18T23:50:30.550Z,30.33
2023-12-18T23:52:58.382Z,29.00
2023-12-18T23:55:26.796Z,28.33
2023-12-18T23:57:53.915Z,28.33
